createdAt,value
2019-03-21T00:02:04.130Z,"    0"
2019-03-21T00:06:59.506Z,"    0"
2019-03-21T00:11:55.348Z,"    0"
2019-03-21T00:16:51.871Z,"    0"
2019-03-21T00:21:47.549Z,"    0"
2019-03-21T00:26:43.387Z,"    0"
2019-03-21T00:31:40.129Z,"    0"
2019-03-21T00:36:36.685Z,"    0"
2019-03-21T00:41:33.190Z,"    0"
2019-03-21T00:46:28.381Z,"    0"
2019-03-21T00:51:24.183Z,"    0"
2019-03-21T00:56:19.914Z,"    0"
2019-03-21T01:01:15.735Z,"    0"
2019-03-21T01:06:12.522Z,"    0"
2019-03-21T01:11:08.949Z,"    0"
2019-03-21T01:16:05.357Z,"    0"
2019-03-21T01:21:01.178Z,"    0"
2019-03-21T01:25:56.717Z,"    0"
2019-03-21T01:30:52.664Z,"    0"
2019-03-21T01:35:48.452Z,"    0"
2019-03-21T01:40:45.854Z,"    0"
2019-03-21T01:45:42.009Z,"    0"
2019-03-21T01:50:38.699Z,"    0"
2019-03-21T01:55:34.652Z,"    0"
2019-03-21T02:00:30.293Z,"    0"
2019-03-21T02:05:26.168Z,"    0"
2019-03-21T02:10:22.295Z,"    0"
2019-03-21T02:15:18.019Z,"    0"
2019-03-21T02:20:13.834Z,"    0"
2019-03-21T02:25:09.465Z,"    0"
2019-03-21T02:30:06.226Z,"    0"
2019-03-21T02:35:01.682Z,"    0"
2019-03-21T02:40:00.024Z,"    0"
2019-03-21T02:45:07.888Z,"    0"
2019-03-21T02:49:54.334Z,"    0"
2019-03-21T02:54:50.507Z,"    0"
2019-03-21T02:59:46.158Z,"    0"
2019-03-21T03:04:41.985Z,"    0"
2019-03-21T03:09:38.687Z,"    0"
2019-03-21T03:14:34.800Z,"    0"
2019-03-21T03:19:31.741Z,"    0"
2019-03-21T03:24:27.262Z,"    0"
2019-03-21T03:29:23.674Z,"    0"
2019-03-21T03:34:20.508Z,"    0"
2019-03-21T03:39:16.335Z,"    0"
2019-03-21T03:44:11.917Z,"    0"
2019-03-21T03:49:07.638Z,"    0"
2019-03-21T03:54:04.341Z,"    0"
2019-03-21T03:58:59.846Z,"    0"
2019-03-21T04:03:55.509Z,"    0"
2019-03-21T04:08:51.613Z,"    0"
2019-03-21T04:13:46.829Z,"    0"
2019-03-21T04:18:43.542Z,"    0"
2019-03-21T04:23:39.154Z,"    0"
2019-03-21T04:28:34.751Z,"    0"
2019-03-21T04:33:30.674Z,"    0"
2019-03-21T04:38:27.384Z,"    0"
2019-03-21T04:43:23.339Z,"    0"
2019-03-21T04:48:19.010Z,"    0"
2019-03-21T04:53:14.642Z,"    0"
2019-03-21T04:58:10.578Z,"    0"
2019-03-21T05:03:07.421Z,"    0"
2019-03-21T05:08:02.921Z,"    0"
2019-03-21T05:12:59.711Z,"    0"
2019-03-21T05:17:54.911Z,"    0"
2019-03-21T05:22:50.553Z,"    0"
2019-03-21T05:27:46.231Z,"    0"
2019-03-21T05:32:42.027Z,"    0"
2019-03-21T05:37:37.637Z,"    0"
2019-03-21T05:42:34.688Z,"    5"
2019-03-21T05:47:31.122Z,"    5"
2019-03-21T05:52:27.420Z,"   10"
2019-03-21T05:57:22.809Z,"   15"
2019-03-21T06:02:18.603Z,"   20"
2019-03-21T06:07:14.433Z,"   25"
2019-03-21T06:12:11.195Z,"   35"
2019-03-21T06:17:06.802Z,"   45"
2019-03-21T06:22:02.622Z,"   60"
2019-03-21T06:26:59.418Z,"   70"
2019-03-21T06:31:54.970Z,"   80"
2019-03-21T06:36:50.802Z,"  100"
2019-03-21T06:41:46.940Z,"  100"
2019-03-21T06:46:49.353Z,"  130"
2019-03-21T06:51:43.063Z,"  140"
2019-03-21T06:56:39.221Z,"  195"
2019-03-21T07:01:35.714Z,"  165"
2019-03-21T07:06:32.282Z,"  155"
2019-03-21T07:11:28.365Z,"  150"
2019-03-21T07:16:24.118Z,"  150"
2019-03-21T07:21:19.848Z,"  165"
2019-03-21T07:26:16.379Z,"  155"
2019-03-21T07:31:12.952Z,"  175"
2019-03-21T07:36:08.947Z,"  170"
2019-03-21T07:41:05.422Z,"  200"
2019-03-21T07:46:01.077Z,"  215"
2019-03-21T07:50:57.019Z,"  210"
2019-03-21T07:55:52.750Z,"  270"
2019-03-21T08:00:49.380Z,"  275"
2019-03-21T08:05:45.789Z,"  225"
2019-03-21T08:10:42.409Z,"  265"
2019-03-21T08:15:40.106Z,"  250"
2019-03-21T08:20:36.045Z,"  290"
2019-03-21T08:25:32.183Z,"  315"
2019-03-21T08:30:28.140Z,"  260"
2019-03-21T08:35:24.115Z,"  220"
2019-03-21T08:40:20.052Z,"  235"
2019-03-21T08:45:16.003Z,"  370"
2019-03-21T08:50:11.874Z,"  260"
2019-03-21T08:55:08.598Z,"  310"
2019-03-21T09:00:04.249Z,"  200"
2019-03-21T09:05:00.059Z,"  215"
2019-03-21T09:09:55.892Z,"  195"
2019-03-21T09:14:51.667Z,"  260"
2019-03-21T09:19:47.898Z,"  285"
2019-03-21T09:24:44.777Z,"  250"
2019-03-21T09:29:52.840Z,"  290"
2019-03-21T09:34:40.407Z,"  335"
2019-03-21T09:39:37.081Z,"  305"
2019-03-21T09:44:33.157Z,"  300"
2019-03-21T09:49:29.561Z,"  455"
2019-03-21T09:54:25.661Z,"  355"
2019-03-21T09:59:22.207Z,"  385"
2019-03-21T10:04:18.082Z,"  305"
2019-03-21T10:09:14.166Z,"  215"
2019-03-21T10:14:09.962Z,"  540"
2019-03-21T10:19:06.680Z,"  355"
2019-03-21T10:24:03.082Z,"  450"
2019-03-21T10:28:58.866Z,"  600"
2019-03-21T10:33:55.069Z,"  560"
2019-03-21T10:38:51.239Z,"  335"
2019-03-21T10:43:48.154Z,"  370"
2019-03-21T10:48:45.099Z,"  795"
2019-03-21T10:53:41.972Z,"  885"
2019-03-21T10:58:38.691Z,"  815"
2019-03-21T11:03:34.734Z,"  765"
2019-03-21T11:08:33.555Z," 1065"
2019-03-21T11:13:28.966Z," 1100"
2019-03-21T11:18:35.676Z,"  870"
2019-03-21T11:23:26.623Z," 1050"
2019-03-21T11:28:23.166Z,"  995"
2019-03-21T11:33:20.296Z,"  900"
2019-03-21T11:38:15.742Z," 1065"
2019-03-21T11:43:11.771Z," 1095"
2019-03-21T11:48:07.850Z," 1025"
2019-03-21T11:53:05.036Z," 1110"
2019-03-21T11:58:02.511Z," 1135"
2019-03-21T12:02:59.093Z," 1165"
2019-03-21T12:07:55.498Z," 1110"
2019-03-21T12:12:51.211Z,"  975"
2019-03-21T12:17:47.473Z," 1135"
2019-03-21T12:22:43.431Z,"  930"
2019-03-21T12:27:40.678Z," 1090"
2019-03-21T12:32:36.300Z,"  895"
2019-03-21T12:37:32.098Z,"  670"
2019-03-21T12:42:27.764Z,"  790"
2019-03-21T12:47:31.150Z,"  610"
2019-03-21T12:52:22.126Z,"  690"
2019-03-21T12:57:18.239Z,"  980"
2019-03-21T13:02:15.710Z,"  340"
2019-03-21T13:07:12.280Z,"  790"
2019-03-21T13:12:08.718Z,"  725"
2019-03-21T13:17:04.675Z,"  880"
2019-03-21T13:22:00.946Z,"  940"
2019-03-21T13:26:57.133Z,"  820"
2019-03-21T13:31:53.439Z,"  605"
2019-03-21T13:36:49.074Z,"  490"
2019-03-21T13:41:44.823Z,"  250"
2019-03-21T13:46:41.206Z,"  315"
2019-03-21T13:51:36.398Z,"  485"
2019-03-21T13:56:38.087Z,"  595"
2019-03-21T14:01:31.340Z,"  530"
2019-03-21T14:06:27.307Z,"  550"
2019-03-21T14:11:23.549Z,"  685"
2019-03-21T14:16:19.627Z,"  330"
2019-03-21T14:21:15.496Z,"  525"
2019-03-21T14:26:11.099Z,"  525"
2019-03-21T14:31:06.835Z,"  225"
2019-03-21T14:36:02.349Z,"  210"
2019-03-21T14:40:58.253Z,"  190"
2019-03-21T14:45:55.011Z,"  180"
2019-03-21T14:50:50.066Z,"  175"
2019-03-21T14:55:47.649Z,"  175"
2019-03-21T15:00:42.886Z,"  175"
2019-03-21T15:05:38.573Z,"  165"
2019-03-21T15:10:34.986Z,"  155"
2019-03-21T15:15:32.254Z,"  145"
2019-03-21T15:20:27.440Z,"  135"
2019-03-21T15:25:23.136Z,"  125"
2019-03-21T15:30:19.257Z,"  120"
2019-03-21T15:35:15.718Z,"  115"
2019-03-21T15:40:12.516Z,"  110"
2019-03-21T15:45:21.499Z,"  100"
2019-03-21T15:50:07.061Z,"  100"
2019-03-21T15:55:02.852Z,"   95"
2019-03-21T15:59:58.270Z,"   90"
2019-03-21T16:04:54.373Z,"   90"
2019-03-21T16:09:53.572Z,"   85"
2019-03-21T16:14:49.419Z,"   80"
2019-03-21T16:19:45.011Z,"   80"
2019-03-21T16:24:40.897Z,"   75"
2019-03-21T16:29:37.688Z,"   70"
2019-03-21T16:34:33.367Z,"   65"
2019-03-21T16:39:30.165Z,"   60"
2019-03-21T16:44:25.888Z,"   55"
2019-03-21T16:49:21.278Z,"   50"
2019-03-21T16:54:17.733Z,"   45"
2019-03-21T16:59:14.487Z,"   35"
2019-03-21T17:04:09.854Z,"   30"
2019-03-21T17:09:05.709Z,"   30"
2019-03-21T17:14:01.502Z,"   30"
2019-03-21T17:18:57.002Z,"   20"
2019-03-21T17:23:53.899Z,"   15"
2019-03-21T17:28:49.160Z,"   10"
2019-03-21T17:33:44.947Z,"   10"
2019-03-21T17:38:41.745Z,"    5"
2019-03-21T17:43:37.562Z,"    5"
2019-03-21T17:48:33.382Z,"    0"
2019-03-21T17:53:29.257Z,"    0"
2019-03-21T17:58:24.851Z,"    0"
2019-03-21T18:03:21.714Z,"    0"
2019-03-21T18:08:16.780Z,"    0"
2019-03-21T18:13:12.882Z,"    0"
2019-03-21T18:18:08.576Z,"    0"
2019-03-21T18:23:05.253Z,"    0"
2019-03-21T18:28:00.638Z,"    0"
2019-03-21T18:32:57.815Z,"    0"
2019-03-21T18:37:54.002Z,"    0"
2019-03-21T18:42:49.963Z,"    0"
2019-03-21T18:47:45.727Z,"    0"
2019-03-21T18:52:42.214Z,"    0"
2019-03-21T18:57:38.183Z,"    0"
2019-03-21T19:02:33.810Z,"    0"
2019-03-21T19:07:29.406Z,"    0"
2019-03-21T19:12:25.574Z,"    0"
2019-03-21T19:17:22.327Z,"    0"
2019-03-21T19:22:18.028Z,"    0"
2019-03-21T19:27:14.153Z,"    0"
2019-03-21T19:32:09.464Z,"    0"
2019-03-21T19:37:06.718Z,"    0"
2019-03-21T19:42:02.315Z,"    0"
2019-03-21T19:46:58.009Z,"    0"
2019-03-21T19:51:53.714Z,"    0"
2019-03-21T19:56:50.632Z,"    0"
2019-03-21T20:01:46.164Z,"    0"
2019-03-21T20:06:41.882Z,"    0"
2019-03-21T20:11:38.356Z,"    0"
2019-03-21T20:16:33.946Z,"    0"
2019-03-21T20:21:30.444Z,"    0"
2019-03-21T20:26:26.106Z,"    0"
2019-03-21T20:31:21.955Z,"    0"
2019-03-21T20:36:18.760Z,"    0"
2019-03-21T20:41:15.111Z,"    0"
2019-03-21T20:46:10.755Z,"    0"
2019-03-21T20:51:07.635Z,"    0"
2019-03-21T20:56:03.032Z,"    0"
2019-03-21T21:00:59.030Z,"    0"
2019-03-21T21:05:54.858Z,"    0"
2019-03-21T21:10:51.765Z,"    0"
2019-03-21T21:15:46.931Z,"    0"
2019-03-21T21:20:42.723Z,"    0"
2019-03-21T21:25:38.464Z,"    0"
2019-03-21T21:30:35.218Z,"    0"
2019-03-21T21:35:31.522Z,"    0"
2019-03-21T21:40:29.099Z,"    0"
2019-03-21T21:45:26.565Z,"    0"
2019-03-21T21:50:21.462Z,"    0"
2019-03-21T21:55:17.137Z,"    0"
2019-03-21T22:00:13.778Z,"    0"
2019-03-21T22:05:10.218Z,"    0"
2019-03-21T22:10:06.295Z,"    0"
2019-03-21T22:15:01.897Z,"    0"
2019-03-21T22:19:58.833Z,"    0"
2019-03-21T22:24:54.281Z,"    0"
2019-03-21T22:29:49.931Z,"    0"
2019-03-21T22:34:45.856Z,"    0"
2019-03-21T22:39:42.518Z,"    0"
2019-03-21T22:44:38.118Z,"    0"
2019-03-21T22:49:33.801Z,"    0"
2019-03-21T22:54:29.736Z,"    0"
2019-03-21T22:59:25.099Z,"    0"
2019-03-21T23:04:21.561Z,"    0"
2019-03-21T23:09:17.945Z,"    0"
2019-03-21T23:14:13.718Z,"    0"
2019-03-21T23:19:09.144Z,"    0"
2019-03-21T23:24:05.400Z,"    0"
2019-03-21T23:29:01.454Z,"    0"
2019-03-21T23:33:57.021Z,"    0"
2019-03-21T23:38:53.201Z,"    0"
2019-03-21T23:43:49.613Z,"    0"
2019-03-21T23:48:45.342Z,"    0"
2019-03-21T23:53:41.696Z,"    0"
2019-03-21T23:58:38.019Z,"    0"
